Time;durP1;ratioP1;P1;durP2;ratioP2;P2;SDS_P1;SDS_P2;PMS_P1;PMS_P2;Temp;Humidity;BMP_temperature;BMP_pressure;BME280_temperature;BME280_humidity;BME280_pressure;Samples;Min_cycle;Max_cycle;Signal;HPM_P1;HPM_P2
2023/07/03 00:00:29;;;;;;;8.35;4.00;;;22.90;84.10;;;;;;5109108;28;20050;-65
2023/07/03 00:02:55;;;;;;;9.93;4.65;;;22.90;83.00;;;;;;5108056;28;20043;-63
2023/07/03 00:05:21;;;;;;;8.98;4.75;;;22.90;80.50;;;;;;5111103;28;20046;-63
2023/07/03 00:07:47;;;;;;;10.13;4.75;;;22.70;83.00;;;;;;5093805;28;20413;-61
2023/07/03 00:10:13;;;;;;;9.35;3.92;;;22.80;80.10;;;;;;5092875;28;20044;-62
2023/07/03 00:12:39;;;;;;;9.10;4.72;;;22.70;82.90;;;;;;5103476;28;20048;-61
2023/07/03 00:15:05;;;;;;;9.70;4.43;;;22.90;80.50;;;;;;5112027;28;20136;-66
2023/07/03 00:17:31;;;;;;;7.95;4.97;;;22.70;83.00;;;;;;5113031;28;20058;-61
2023/07/03 00:19:57;;;;;;;9.35;4.50;;;22.70;83.10;;;;;;5092959;28;20054;-67
2023/07/03 00:22:22;;;;;;;9.00;4.22;;;22.70;80.30;;;;;;5113009;28;20050;-61
2023/07/03 00:24:48;;;;;;;9.75;4.60;;;22.90;83.10;;;;;;5109027;28;20038;-61
2023/07/03 00:27:14;;;;;;;9.35;4.82;;;22.70;83.60;;;;;;5105861;28;20036;-64
2023/07/03 00:29:39;;;;;;;8.02;4.30;;;22.90;80.60;;;;;;5108639;28;20493;-63
2023/07/03 00:32:06;;;;;;;8.55;4.57;;;22.70;83.30;;;;;;5110993;28;20579;-62
2023/07/03 00:34:32;;;;;;;8.38;4.22;;;22.60;83.10;;;;;;5112359;28;20055;-65
2023/07/03 00:36:57;;;;;;;10.68;4.38;;;22.80;80.40;;;;;;5111579;28;20043;-60
2023/07/03 00:39:24;;;;;;;9.98;4.35;;;22.80;80.60;;;;;;5112092;28;20126;-63
2023/07/03 00:41:49;;;;;;;10.32;4.25;;;22.90;83.40;;;;;;5112076;28;20039;-60
2023/07/03 00:44:17;;;;;;;7.45;4.03;;;22.50;81.00;;;;;;5112328;28;20066;-63
2023/07/03 00:46:45;;;;;;;9.75;4.70;;;22.70;83.20;;;;;;5111483;28;20048;-61
2023/07/03 00:49:11;;;;;;;10.30;4.55;;;22.80;83.90;;;;;;5111431;28;20043;-61
2023/07/03 00:51:41;;;;;;;8.15;4.47;;;22.90;84.20;;;;;;5111864;28;20452;-64
2023/07/03 00:54:07;;;;;;;11.43;4.50;;;22.70;81.00;;;;;;5110956;28;20048;-61
2023/07/03 00:56:33;;;;;;;10.48;4.53;;;22.70;83.30;;;;;;5109722;28;20058;-66
2023/07/03 00:58:59;;;;;;;10.07;4.35;;;22.80;83.40;;;;;;5109126;28;20429;-64
2023/07/03 01:01:43;;;;;;;9.70;3.75;;;22.60;83.20;;;;;;5111826;28;20040;-64
2023/07/03 01:04:14;;;;;;;10.07;4.40;;;22.80;83.60;;;;;;5110026;28;20105;-64
2023/07/03 01:06:50;;;;;;;9.73;4.28;;;22.70;81.10;;;;;;5109440;28;20046;-60
2023/07/03 01:09:17;;;;;;;8.32;3.90;;;22.70;83.70;;;;;;5111964;28;20066;-67
2023/07/03 01:11:44;;;;;;;9.10;4.40;;;22.80;83.60;;;;;;5109569;28;20071;-66
2023/07/03 01:14:10;;;;;;;9.30;4.55;;;22.70;80.80;;;;;;5105919;28;20119;-61
2023/07/03 01:16:36;;;;;;;9.18;4.40;;;22.60;83.30;;;;;;5097557;28;20561;-61
2023/07/03 01:19:02;;;;;;;9.18;4.90;;;22.70;83.50;;;;;;5114404;28;20127;-60
2023/07/03 01:21:49;;;;;;;11.25;4.95;;;22.60;80.60;;;;;;5114839;28;20094;-63
2023/07/03 01:24:32;;;;;;;8.00;3.88;;;22.70;83.70;;;;;;5096891;28;20086;-65
2023/07/03 01:26:58;;;;;;;;;;;22.80;79.80;;;;;;5105025;28;20714;-65
2023/07/03 01:29:24;;;;;;;8.27;4.03;;;22.70;83.70;;;;;;5097701;28;20041;-66
2023/07/03 01:31:50;;;;;;;7.75;3.65;;;22.70;83.70;;;;;;5108263;27;20067;-65
2023/07/03 01:34:15;;;;;;;9.98;4.13;;;22.60;83.40;;;;;;5115989;28;20048;-65
2023/07/03 01:36:41;;;;;;;9.45;4.35;;;22.60;83.50;;;;;;5096424;28;20126;-65
2023/07/03 01:39:07;;;;;;;8.98;4.47;;;22.70;84.00;;;;;;5112932;28;20121;-66
2023/07/03 01:41:32;;;;;;;10.45;4.55;;;22.60;83.60;;;;;;5112323;28;20085;-61
2023/07/03 01:43:58;;;;;;;9.85;4.30;;;23.00;81.10;;;;;;5116293;28;20075;-61
2023/07/03 01:46:24;;;;;;;9.95;4.18;;;22.60;83.40;;;;;;5115437;28;20043;-62
2023/07/03 01:48:50;;;;;;;10.85;4.28;;;22.60;80.80;;;;;;5113882;28;20095;-63
2023/07/03 01:51:19;;;;;;;8.77;4.10;;;22.70;83.60;;;;;;5116121;28;20070;-66
2023/07/03 01:53:51;;;;;;;9.05;3.78;;;22.50;81.10;;;;;;5081005;28;20043;-64
2023/07/03 01:56:17;;;;;;;8.63;4.53;;;;;;;;;;5080014;28;20118;-62
2023/07/03 01:58:46;;;;;;;9.07;4.40;;;22.60;83.40;;;;;;5098739;28;20046;-63
2023/07/03 02:01:18;;;;;;;9.23;4.47;;;22.60;83.70;;;;;;5113963;28;20048;-61
2023/07/03 02:03:47;;;;;;;8.82;4.28;;;22.70;83.70;;;;;;5113842;28;20039;-65
2023/07/03 02:06:20;;;;;;;9.27;3.85;;;22.60;83.60;;;;;;5096928;28;20044;-63
2023/07/03 02:08:46;;;;;;;;;;;22.50;81.30;;;;;;5110298;28;20097;-63
2023/07/03 02:11:15;;;;;;;9.93;4.43;;;22.70;83.80;;;;;;5099550;28;19927;-61
2023/07/03 02:13:41;;;;;;;7.85;4.30;;;22.70;83.70;;;;;;5112225;28;20043;-61
2023/07/03 02:16:06;;;;;;;9.13;4.68;;;22.60;83.50;;;;;;5114539;28;20044;-61
2023/07/03 02:18:34;;;;;;;12.00;4.47;;;22.70;83.80;;;;;;5109036;28;20036;-61
2023/07/03 02:21:00;;;;;;;8.82;4.40;;;22.70;81.20;;;;;;5113229;28;20077;-61
2023/07/03 02:23:26;;;;;;;10.15;3.92;;;22.60;83.90;;;;;;5098644;28;20096;-63
2023/07/03 02:25:52;;;;;;;8.77;4.05;;;22.60;83.60;;;;;;5076732;28;20054;-65
2023/07/03 02:28:18;;;;;;;10.55;4.22;;;;;;;;;;5103075;28;20044;-63
2023/07/03 02:30:44;;;;;;;8.32;3.78;;;22.50;83.40;;;;;;5113763;28;20039;-62
2023/07/03 02:33:11;;;;;;;10.32;4.10;;;22.60;84.50;;;;;;5113967;28;20044;-62
2023/07/03 02:35:37;;;;;;;10.40;4.50;;;22.60;84.00;;;;;;5114923;28;20103;-61
2023/07/03 02:38:03;;;;;;;8.85;4.28;;;22.50;83.90;;;;;;5112501;28;20040;-63
2023/07/03 02:40:29;;;;;;;8.55;4.05;;;22.40;81.00;;;;;;5112145;28;20114;-61
2023/07/03 02:42:55;;;;;;;11.98;4.00;;;22.60;84.30;;;;;;5114816;28;20438;-62
2023/07/03 02:45:20;;;;;;;9.75;4.40;;;22.40;84.60;;;;;;5115084;28;20421;-61
2023/07/03 02:47:46;;;;;;;9.93;4.00;;;22.50;83.70;;;;;;5111791;28;20036;-63
2023/07/03 02:50:12;;;;;;;7.80;3.92;;;22.60;83.90;;;;;;5113489;28;20046;-62
2023/07/03 02:52:37;;;;;;;10.13;3.83;;;22.50;83.80;;;;;;5114135;28;20044;-61
2023/07/03 02:55:03;;;;;;;8.20;3.72;;;22.50;83.80;;;;;;5114054;28;20046;-65
2023/07/03 02:57:29;;;;;;;10.40;4.13;;;22.30;83.70;;;;;;5105645;28;20044;-63
2023/07/03 02:59:55;;;;;;;7.35;3.63;;;22.60;83.90;;;;;;5111922;28;20093;-60
2023/07/03 03:02:21;;;;;;;7.75;3.72;;;22.50;83.80;;;;;;5115060;28;20493;-60
2023/07/03 03:04:47;;;;;;;8.27;3.70;;;22.70;81.30;;;;;;5114789;28;20032;-61
2023/07/03 03:07:13;;;;;;;8.57;3.70;;;22.40;83.80;;;;;;5113245;28;20066;-60
2023/07/03 03:09:40;;;;;;;8.60;3.97;;;22.50;83.80;;;;;;5100392;28;20043;-62
2023/07/03 03:12:07;;;;;;;9.75;4.03;;;22.40;83.90;;;;;;5112907;28;20510;-61
2023/07/03 03:14:33;;;;;;;7.63;3.30;;;22.50;81.10;;;;;;5096610;28;20052;-61
2023/07/03 03:16:58;;;;;;;9.52;3.65;;;22.50;84.10;;;;;;5094049;28;20040;-63
2023/07/03 03:19:24;;;;;;;7.90;3.60;;;22.50;81.20;;;;;;5094633;28;20032;-60
2023/07/03 03:21:50;;;;;;;7.78;3.30;;;22.50;84.50;;;;;;5099818;28;20474;-61
2023/07/03 03:24:16;;;;;;;8.88;3.45;;;22.50;84.00;;;;;;5094153;28;20036;-60
2023/07/03 03:26:42;;;;;;;10.07;3.50;;;22.40;84.10;;;;;;5094449;28;20052;-61
2023/07/03 03:29:08;;;;;;;9.48;3.85;;;22.20;83.90;;;;;;5103568;28;20051;-61
2023/07/03 03:31:34;;;;;;;8.25;3.78;;;22.50;84.00;;;;;;5113273;28;20208;-63
2023/07/03 03:33:59;;;;;;;7.65;3.28;;;22.30;83.90;;;;;;5113510;28;20043;-66
2023/07/03 03:36:25;;;;;;;7.28;3.45;;;22.40;84.10;;;;;;5114043;28;20128;-67
2023/07/03 03:38:51;;;;;;;7.53;3.03;;;22.40;84.00;;;;;;5101115;28;20043;-60
2023/07/03 03:41:16;;;;;;;8.85;3.33;;;22.40;84.00;;;;;;5094487;28;20051;-60
2023/07/03 03:43:42;;;;;;;8.52;3.20;;;22.40;84.20;;;;;;5093544;28;20043;-62
2023/07/03 03:46:08;;;;;;;8.15;3.58;;;22.40;84.20;;;;;;5075007;28;20040;-60
2023/07/03 03:48:35;;;;;;;7.53;3.40;;;;;;;;;;5101120;28;20051;-65
2023/07/03 03:51:01;;;;;;;8.40;3.70;;;22.50;84.10;;;;;;5112540;28;20314;-61
2023/07/03 03:53:26;;;;;;;6.55;3.20;;;22.40;84.10;;;;;;5113218;28;20130;-62
2023/07/03 03:55:52;;;;;;;7.38;3.03;;;22.30;84.00;;;;;;5113381;28;20123;-62
2023/07/03 03:58:18;;;;;;;8.93;3.17;;;22.30;84.60;;;;;;5110068;28;20046;-65
2023/07/03 04:00:44;;;;;;;8.35;3.25;;;22.40;84.00;;;;;;5111604;28;20043;-65
2023/07/03 04:03:10;;;;;;;7.53;3.03;;;22.30;81.20;;;;;;5111842;28;20043;-62
2023/07/03 04:05:36;;;;;;;7.72;3.50;;;22.30;83.90;;;;;;5095169;28;20044;-63
2023/07/03 04:08:02;;;;;;;7.95;3.42;;;22.40;84.00;;;;;;5082546;28;20104;-61
2023/07/03 04:10:28;;;;;;;6.65;3.10;;;22.40;84.10;;;;;;5075174;28;20040;-61
2023/07/03 04:12:53;;;;;;;6.28;2.80;;;22.50;81.30;;;;;;5101215;28;20043;-62
2023/07/03 04:15:21;;;;;;;6.80;3.15;;;22.40;81.30;;;;;;5113190;28;20115;-65
2023/07/03 04:17:47;;;;;;;6.90;2.60;;;22.40;83.80;;;;;;5113377;28;20434;-63
2023/07/03 04:20:13;;;;;;;7.15;2.75;;;22.50;83.90;;;;;;5093765;28;20181;-60
2023/07/03 04:22:42;;;;;;;9.23;3.40;;;22.60;84.30;;;;;;5097926;28;20036;-62
2023/07/03 04:25:08;;;;;;;7.70;2.83;;;22.60;81.40;;;;;;5108084;28;20047;-60
2023/07/03 04:27:34;;;;;;;6.72;2.88;;;22.60;83.80;;;;;;5113033;28;20050;-62
2023/07/03 04:30:01;;;;;;;8.25;3.17;;;22.50;83.60;;;;;;5107573;28;20040;-61
2023/07/03 04:32:27;;;;;;;7.25;3.00;;;22.60;83.60;;;;;;5110486;28;20130;-61
2023/07/03 04:34:53;;;;;;;6.90;2.72;;;22.40;83.50;;;;;;5106281;28;20055;-61
2023/07/03 04:37:19;;;;;;;7.38;2.88;;;22.70;81.10;;;;;;5113339;28;20043;-61
2023/07/03 04:39:45;;;;;;;7.70;3.08;;;22.50;83.50;;;;;;5112657;28;20044;-61
2023/07/03 04:42:13;;;;;;;6.07;2.47;;;22.70;83.60;;;;;;5094445;28;20048;-66
2023/07/03 04:44:41;;;;;;;8.15;2.95;;;22.70;83.50;;;;;;5103746;28;20054;-61
2023/07/03 04:47:08;;;;;;;7.10;2.70;;;22.50;83.30;;;;;;5107602;28;20048;-62
2023/07/03 04:49:34;;;;;;;10.02;2.78;;;22.60;81.10;;;;;;5112264;28;20127;-62
2023/07/03 04:52:00;;;;;;;6.82;2.47;;;22.60;83.40;;;;;;5116579;28;20051;-61
2023/07/03 04:54:28;;;;;;;6.72;2.67;;;22.80;83.30;;;;;;5115671;28;20032;-64
2023/07/03 04:56:54;;;;;;;6.60;2.60;;;22.80;83.40;;;;;;5116357;28;20454;-61
2023/07/03 04:59:20;;;;;;;6.32;2.55;;;22.50;80.40;;;;;;5116587;28;20042;-64
2023/07/03 05:01:46;;;;;;;6.40;2.75;;;23.00;80.50;;;;;;5115754;28;20136;-60
2023/07/03 05:04:12;;;;;;;6.13;2.60;;;23.00;80.30;;;;;;5115537;28;20040;-61
2023/07/03 05:06:38;;;;;;;6.57;2.55;;;23.10;80.00;;;;;;5113938;28;20067;-61
2023/07/03 05:09:04;;;;;;;8.10;2.70;;;23.40;79.70;;;;;;5117345;28;20396;-61
2023/07/03 05:11:31;;;;;;;6.00;2.78;;;23.40;79.60;;;;;;5116423;28;20043;-60
2023/07/03 05:13:56;;;;;;;6.18;2.60;;;23.40;79.50;;;;;;5108328;28;20539;-61
2023/07/03 05:16:22;;;;;;;6.22;2.60;;;23.90;79.20;;;;;;5113149;28;20085;-61
2023/07/03 05:18:48;;;;;;;6.68;2.92;;;23.80;78.70;;;;;;5116548;28;20099;-65
2023/07/03 05:21:14;;;;;;;6.93;3.03;;;23.90;78.50;;;;;;5097708;28;20098;-70
2023/07/03 05:23:39;;;;;;;7.18;2.72;;;24.00;78.20;;;;;;5116278;28;20052;-65
2023/07/03 05:26:05;;;;;;;7.07;2.75;;;24.10;77.80;;;;;;5115640;28;20043;-61
2023/07/03 05:28:32;;;;;;;6.20;2.80;;;23.90;77.40;;;;;;5107344;28;20059;-64
2023/07/03 05:30:58;;;;;;;7.07;2.70;;;24.10;77.60;;;;;;5103896;28;20043;-64
2023/07/03 05:33:24;;;;;;;8.32;3.17;;;24.20;77.40;;;;;;5115965;28;20055;-70
2023/07/03 05:35:50;;;;;;;6.78;2.45;;;24.40;77.10;;;;;;5115161;28;20043;-65
2023/07/03 05:38:17;;;;;;;6.50;2.63;;;24.20;76.50;;;;;;5116371;28;20374;-61
2023/07/03 05:40:44;;;;;;;6.43;2.85;;;24.30;77.00;;;;;;5112046;28;20061;-61
2023/07/03 05:43:10;;;;;;;6.95;2.30;;;24.60;76.60;;;;;;5115579;28;20078;-61
2023/07/03 05:45:36;;;;;;;8.07;2.67;;;24.80;76.70;;;;;;5111387;28;20119;-63
2023/07/03 05:48:02;;;;;;;9.07;2.67;;;24.60;76.00;;;;;;5107120;28;20465;-61
2023/07/03 05:50:28;;;;;;;6.63;2.25;;;24.80;76.00;;;;;;5111314;28;20055;-60
2023/07/03 05:52:54;;;;;;;8.82;3.28;;;24.80;75.60;;;;;;5105311;28;20093;-66
2023/07/03 05:55:20;;;;;;;7.65;2.83;;;24.80;75.50;;;;;;5114517;28;20047;-62
2023/07/03 05:57:46;;;;;;;8.13;2.53;;;25.10;75.30;;;;;;5115516;28;20101;-66
2023/07/03 06:00:15;;;;;;;7.13;2.70;;;25.00;75.00;;;;;;5115936;28;20473;-62
2023/07/03 06:02:45;;;;;;;5.82;2.17;;;24.90;74.50;;;;;;5113478;28;20078;-63
2023/07/03 06:05:11;;;;;;;7.68;2.55;;;25.30;75.20;;;;;;5115558;28;20123;-63
2023/07/03 06:07:37;;;;;;;6.50;2.40;;;25.10;74.60;;;;;;5112607;28;20397;-62
2023/07/03 06:10:03;;;;;;;6.55;2.42;;;25.30;75.00;;;;;;5115481;28;20043;-64
2023/07/03 06:12:29;;;;;;;6.90;2.65;;;25.30;74.20;;;;;;5114890;28;20062;-69
2023/07/03 06:14:59;;;;;;;6.78;2.50;;;25.10;74.40;;;;;;5115684;28;20047;-61
2023/07/03 06:17:26;;;;;;;6.68;2.40;;;25.40;74.80;;;;;;5112517;28;20043;-65
2023/07/03 06:19:51;;;;;;;7.78;2.63;;;25.10;74.40;;;;;;5111143;28;20047;-61
2023/07/03 06:22:18;;;;;;;8.00;2.35;;;25.20;74.40;;;;;;5095091;28;20044;-64
2023/07/03 06:24:43;;;;;;;7.20;2.45;;;25.00;74.60;;;;;;5094719;28;20039;-61
2023/07/03 06:27:09;;;;;;;5.88;2.33;;;24.80;74.60;;;;;;5098741;28;20055;-60
2023/07/03 06:29:35;;;;;;;7.05;2.30;;;24.80;74.80;;;;;;5107683;28;20040;-73
2023/07/03 06:32:01;;;;;;;6.78;2.58;;;24.80;75.10;;;;;;5094635;28;20056;-63
2023/07/03 06:34:27;;;;;;;6.90;2.30;;;24.70;74.90;;;;;;5109879;28;20043;-61
2023/07/03 06:36:53;;;;;;;5.53;2.17;;;24.70;75.40;;;;;;5108624;28;20036;-61
2023/07/03 06:39:19;;;;;;;7.22;2.58;;;24.70;75.40;;;;;;5112096;28;20050;-72
2023/07/03 06:41:45;;;;;;;7.13;2.72;;;24.60;75.50;;;;;;5115152;28;20047;-70
2023/07/03 06:44:13;;;;;;;6.93;2.50;;;24.30;75.50;;;;;;5114821;28;20044;-63
2023/07/03 06:46:39;;;;;;;6.40;2.20;;;24.30;75.90;;;;;;5114775;28;20492;-61
2023/07/03 06:49:05;;;;;;;6.72;2.40;;;24.30;79.20;;;;;;5108590;28;20046;-61
2023/07/03 06:51:31;;;;;;;7.20;2.38;;;24.40;76.00;;;;;;5094281;28;20044;-63
2023/07/03 06:53:57;;;;;;;7.15;2.28;;;24.60;75.70;;;;;;5103988;28;20051;-64
2023/07/03 06:56:22;;;;;;;7.20;2.13;;;24.60;75.70;;;;;;5105992;28;20043;-66
2023/07/03 06:58:49;;;;;;;6.75;2.45;;;25.00;75.70;;;;;;5111049;28;20036;-67
2023/07/03 07:01:15;;;;;;;6.88;2.15;;;24.80;75.40;;;;;;5114584;28;20040;-70
2023/07/03 07:03:41;;;;;;;6.95;2.67;;;24.80;75.60;;;;;;5114403;28;20047;-66
2023/07/03 07:06:16;;;;;;;5.40;2.33;;;25.00;75.40;;;;;;5114220;28;20573;-65
2023/07/03 07:08:42;;;;;;;7.65;2.45;;;25.00;75.70;;;;;;5109970;28;20532;-69
2023/07/03 07:11:27;;;;;;;6.15;2.10;;;24.90;77.80;;;;;;5109891;28;20139;-62
2023/07/03 07:13:55;;;;;;;5.85;2.20;;;25.10;75.40;;;;;;5112383;28;20047;-70
2023/07/03 07:16:23;;;;;;;8.70;2.83;;;25.00;75.30;;;;;;5114460;28;20051;-69
2023/07/03 07:18:56;;;;;;;7.43;2.38;;;25.10;75.30;;;;;;5109978;28;20111;-61
2023/07/03 07:21:22;;;;;;;6.13;2.25;;;24.90;78.30;;;;;;5112956;28;20043;-61
2023/07/03 07:23:56;;;;;;;10.07;2.80;;;24.70;75.20;;;;;;5114310;28;20044;-61
2023/07/03 07:26:23;;;;;;;8.30;2.80;;;24.70;74.10;;;;;;5113907;28;20044;-62
2023/07/03 07:28:49;;;;;;;7.68;2.60;;;25.00;75.90;;;;;;5103821;28;20044;-61
2023/07/03 07:31:22;;;;;;;7.38;2.40;;;24.60;75.40;;;;;;5111807;28;20445;-61
2023/07/03 07:33:48;;;;;;;8.18;2.88;;;24.60;74.50;;;;;;5114089;28;20481;-61
2023/07/03 07:36:14;;;;;;;9.32;3.28;;;24.50;75.60;;;;;;5112929;28;20176;-62
2023/07/03 07:38:40;;;;;;;8.68;2.58;;;24.40;75.90;;;;;;5108912;27;20059;-66
2023/07/03 07:41:06;;;;;;;7.65;2.67;;;24.40;75.80;;;;;;5112583;28;20047;-63
2023/07/03 07:43:31;;;;;;;7.32;2.50;;;24.50;76.00;;;;;;5113134;28;20040;-61
2023/07/03 07:45:57;;;;;;;6.10;2.20;;;24.30;76.00;;;;;;5100838;28;20097;-61
2023/07/03 07:48:23;;;;;;;8.82;2.92;;;24.30;76.20;;;;;;5093387;28;20108;-61
2023/07/03 07:50:50;;;;;;;5.55;2.22;;;24.10;76.30;;;;;;5094204;28;20047;-62
2023/07/03 07:53:15;;;;;;;6.95;2.45;;;24.20;76.40;;;;;;5109103;28;20054;-63
2023/07/03 07:55:41;;;;;;;7.28;2.85;;;24.30;76.70;;;;;;5113480;28;20134;-61
2023/07/03 07:58:07;;;;;;;7.43;2.50;;;24.00;76.50;;;;;;5112671;28;20032;-64
2023/07/03 08:00:34;;;;;;;6.47;2.70;;;23.80;76.60;;;;;;5109669;28;20396;-61
2023/07/03 08:03:00;;;;;;;6.78;2.25;;;24.20;77.00;;;;;;5112410;28;20384;-70
2023/07/03 08:05:26;;;;;;;8.73;2.53;;;24.20;76.80;;;;;;5112211;28;20048;-65
2023/07/03 08:07:52;;;;;;;11.95;3.00;;;24.10;76.80;;;;;;5103803;28;20040;-65
2023/07/03 08:10:18;;;;;;;9.15;3.08;;;24.20;80.40;;;;;;5104409;28;20048;-66
2023/07/03 08:12:45;;;;;;;10.13;3.15;;;24.00;77.10;;;;;;5112106;28;20417;-66
2023/07/03 08:15:11;;;;;;;7.10;2.40;;;24.10;77.10;;;;;;5113449;28;20044;-61
2023/07/03 08:17:37;;;;;;;8.20;2.83;;;24.10;77.20;;;;;;5113386;28;20035;-61
2023/07/03 08:20:08;;;;;;;6.90;2.30;;;24.10;77.20;;;;;;5103877;28;20477;-61
2023/07/03 08:22:34;;;;;;;11.45;2.40;;;24.00;77.00;;;;;;5112019;28;20099;-61
2023/07/03 08:25:00;;;;;;;8.50;2.70;;;23.90;77.20;;;;;;5111328;28;20210;-64
2023/07/03 08:27:26;;;;;;;8.70;2.88;;;23.90;77.20;;;;;;5104839;28;20044;-62
2023/07/03 08:29:51;;;;;;;7.25;2.60;;;23.80;80.70;;;;;;5094491;28;20084;-61
2023/07/03 08:32:17;;;;;;;10.82;3.00;;;23.70;77.40;;;;;;5112691;28;20055;-61
2023/07/03 08:34:43;;;;;;;8.52;2.75;;;24.10;77.60;;;;;;5112488;28;20087;-61
2023/07/03 08:37:09;;;;;;;8.02;2.80;;;23.90;77.80;;;;;;5098724;28;20074;-62
2023/07/03 08:39:38;;;;;;;8.85;2.38;;;24.00;81.40;;;;;;5096529;28;20036;-61
2023/07/03 08:42:19;;;;;;;7.10;2.55;;;24.00;81.50;;;;;;5093201;28;20118;-62
2023/07/03 08:44:45;;;;;;;7.25;2.40;;;24.00;78.50;;;;;;5062965;28;20039;-61
2023/07/03 08:47:14;;;;;;;6.47;2.53;;;24.10;77.90;;;;;;5110184;28;20048;-62
2023/07/03 08:49:40;;;;;;;6.47;2.40;;;23.90;78.30;;;;;;5092661;28;20043;-66
2023/07/03 08:52:07;;;;;;;8.23;2.65;;;24.00;77.80;;;;;;5112041;28;20613;-69
2023/07/03 08:54:34;;;;;;;10.00;2.15;;;24.00;78.10;;;;;;5095291;28;20080;-62
2023/07/03 08:57:00;;;;;;;9.25;2.80;;;23.70;81.30;;;;;;5074499;28;20112;-63
2023/07/03 08:59:26;;;;;;;6.38;2.20;;;24.20;78.10;;;;;;5072896;28;20047;-65
2023/07/03 09:02:01;;;;;;;6.80;2.60;;;24.10;78.00;;;;;;5106883;28;20042;-66
2023/07/03 09:04:45;;;;;;;7.63;2.67;;;24.10;76.90;;;;;;5087470;28;20075;-68
2023/07/03 09:07:21;;;;;;;5.35;1.90;;;24.40;78.60;;;;;;5110818;28;20443;-61
2023/07/03 09:10:11;;;;;;;6.47;2.22;;;24.50;78.40;;;;;;5108469;28;20507;-69
2023/07/03 09:12:58;;;;;;;5.85;2.05;;;24.40;76.70;;;;;;5109227;28;20046;-65
2023/07/03 09:15:29;;;;;;;5.50;2.05;;;24.50;78.10;;;;;;5054553;28;20044;-66
2023/07/03 09:17:57;;;;;;;7.47;2.30;;;24.30;81.00;;;;;;5101076;28;20041;-61
2023/07/03 09:20:23;;;;;;;24.08;3.55;;;24.50;78.10;;;;;;5108115;28;20051;-62
2023/07/03 09:23:18;;;;;;;18.90;2.50;;;24.40;78.00;;;;;;5110964;28;20131;-66
2023/07/03 09:26:02;;;;;;;9.13;2.63;;;24.40;77.00;;;;;;5093925;28;20122;-61
2023/07/03 09:28:28;;;;;;;10.32;2.42;;;24.10;77.00;;;;;;5078982;28;20052;-62
2023/07/03 09:30:53;;;;;;;11.48;2.17;;;24.10;78.10;;;;;;5109996;28;20047;-63
2023/07/03 09:33:19;;;;;;;8.05;2.08;;;24.40;81.60;;;;;;5111963;28;20057;-69
2023/07/03 09:35:47;;;;;;;9.30;2.30;;;24.30;78.10;;;;;;5112623;28;20397;-67
2023/07/03 09:38:21;;;;;;;7.20;2.42;;;24.00;78.20;;;;;;5114864;28;20063;-64
2023/07/03 09:40:48;;;;;;;8.98;2.42;;;24.10;78.50;;;;;;5095785;28;20044;-61
2023/07/03 09:43:19;;;;;;;7.35;2.17;;;24.30;78.50;;;;;;5114923;28;20043;-68
2023/07/03 09:45:45;;;;;;;8.98;2.17;;;24.10;78.60;;;;;;5103140;28;20105;-62
2023/07/03 09:48:25;;;;;;;7.75;2.15;;;24.10;78.10;;;;;;5115811;28;20058;-62
2023/07/03 09:50:50;;;;;;;6.95;1.92;;;23.80;78.50;;;;;;5116107;28;20040;-61
2023/07/03 09:53:21;;;;;;;6.55;2.10;;;24.00;78.40;;;;;;5111518;28;20489;-64
2023/07/03 09:55:57;;;;;;;7.13;2.42;;;23.90;78.80;;;;;;5115951;28;20046;-69
2023/07/03 09:58:25;;;;;;;7.55;2.00;;;23.80;79.00;;;;;;5116044;28;20416;-67
2023/07/03 10:00:54;;;;;;;10.48;2.13;;;23.80;78.80;;;;;;5110605;28;20087;-65
2023/07/03 10:03:23;;;;;;;6.43;1.98;;;23.90;78.80;;;;;;5104938;28;20058;-64
2023/07/03 10:05:49;;;;;;;6.07;1.90;;;24.00;79.00;;;;;;5114926;28;20783;-63
2023/07/03 10:08:15;;;;;;;4.72;1.88;;;23.80;78.50;;;;;;5111371;28;20055;-65
2023/07/03 10:10:42;;;;;;;6.30;2.00;;;24.00;79.00;;;;;;5111785;28;20047;-66
2023/07/03 10:13:23;;;;;;;8.07;2.00;;;23.90;79.00;;;;;;5111441;28;20076;-64
2023/07/03 10:15:51;;;;;;;5.03;1.70;;;23.90;79.60;;;;;;5115144;28;20047;-69
2023/07/03 10:18:32;;;;;;;9.70;2.10;;;24.00;78.90;;;;;;5108169;28;20104;-67
2023/07/03 10:21:01;;;;;;;8.85;2.40;;;23.80;77.80;;;;;;5108210;28;20095;-63
2023/07/03 10:23:29;;;;;;;7.53;1.88;;;24.40;79.30;;;;;;5097218;28;20477;-67
2023/07/03 10:25:58;;;;;;;5.03;1.90;;;24.20;82.40;;;;;;5113862;28;20054;-64
2023/07/03 10:28:29;;;;;;;5.72;1.88;;;24.20;79.30;;;;;;5096909;28;20052;-64
2023/07/03 10:30:58;;;;;;;5.63;1.73;;;24.20;82.50;;;;;;5091946;28;20140;-61
2023/07/03 10:33:32;;;;;;;6.50;1.70;;;23.90;81.20;;;;;;5107659;28;21564;-62
2023/07/03 10:35:58;;;;;;;8.63;1.80;;;24.00;79.20;;;;;;5088425;28;20048;-61
2023/07/03 10:38:43;;;;;;;14.05;2.53;;;24.40;82.40;;;;;;5084595;28;20036;-61
2023/07/03 10:41:13;;;;;;;8.93;2.40;;;24.10;77.70;;;;;;5086482;28;20044;-71
2023/07/03 10:43:49;;;;;;;9.10;2.05;;;24.40;79.20;;;;;;5110234;28;20116;-69
2023/07/03 10:46:30;;;;;;;5.95;1.95;;;24.10;77.30;;;;;;5110229;28;20044;-68
2023/07/03 10:48:56;;;;;;;9.98;2.15;;;24.10;77.50;;;;;;5109454;28;20047;-67
2023/07/03 10:51:52;;;;;;;9.55;2.13;;;24.10;81.50;;;;;;5108314;28;20040;-69
2023/07/03 10:54:37;;;;;;;6.72;2.03;;;24.20;77.30;;;;;;5085022;28;20065;-69
2023/07/03 10:57:04;;;;;;;9.95;2.00;;;24.00;77.50;;;;;;5056801;28;20053;-64
2023/07/03 10:59:34;;;;;;;5.93;1.80;;;24.10;78.70;;;;;;5056293;28;20037;-61
2023/07/03 11:02:21;;;;;;;6.15;1.70;;;24.20;78.60;;;;;;5071756;28;20052;-70
2023/07/03 11:05:18;;;;;;;6.03;1.95;;;24.10;77.30;;;;;;5094074;28;20119;-64
2023/07/03 11:08:08;;;;;;;4.85;1.77;;;24.10;77.80;;;;;;5093916;28;20036;-60
2023/07/03 11:11:06;;;;;;;6.40;1.77;;;24.10;77.60;;;;;;5082680;28;20044;-60
2023/07/03 11:13:43;;;;;;;5.20;1.63;;;24.10;77.90;;;;;;5088588;28;20052;-63
2023/07/03 11:16:13;;;;;;;5.93;1.65;;;24.40;79.70;;;;;;5094134;28;20086;-61
2023/07/03 11:19:04;;;;;;;4.70;1.50;;;24.10;79.40;;;;;;5094033;28;20397;-60
2023/07/03 11:21:32;;;;;;;6.13;1.80;;;24.20;82.10;;;;;;5091690;28;20066;-61
2023/07/03 11:24:03;;;;;;;6.03;1.70;;;24.20;77.60;;;;;;5090742;28;20115;-61
2023/07/03 11:26:39;;;;;;;4.15;1.52;;;24.00;77.40;;;;;;5104968;28;20028;-68
2023/07/03 11:29:09;;;;;;;7.05;1.67;;;24.40;79.40;;;;;;5084090;28;20130;-64
2023/07/03 11:31:38;;;;;;;4.45;1.63;;;24.10;78.90;;;;;;5092520;28;20101;-62
2023/07/03 11:34:05;;;;;;;5.47;1.55;;;24.30;78.50;;;;;;5114144;28;20047;-67
2023/07/03 11:36:40;;;;;;;6.53;1.63;;;24.40;78.80;;;;;;5111441;28;20046;-62
2023/07/03 11:39:24;;;;;;;7.68;1.65;;;24.10;78.90;;;;;;5108403;27;20047;-64
2023/07/03 11:41:53;;;;;;;5.05;1.65;;;24.20;77.60;;;;;;5102615;28;20040;-61
2023/07/03 11:44:43;;;;;;;5.32;1.60;;;24.30;78.90;;;;;;5098240;28;20127;-63
2023/07/03 11:47:17;;;;;;;5.18;1.90;;;24.00;77.50;;;;;;5096881;28;20479;-61
2023/07/03 11:49:44;;;;;;;6.82;1.77;;;24.20;79.00;;;;;;5111366;28;20557;-63
2023/07/03 11:52:12;;;;;;;8.63;2.10;;;24.40;79.00;;;;;;5076120;28;20047;-61
2023/07/03 11:54:39;;;;;;;6.13;1.85;;;24.10;78.90;;;;;;5107763;28;20109;-62
2023/07/03 11:57:10;;;;;;;5.93;1.83;;;24.30;78.90;;;;;;5110115;28;20055;-61
2023/07/03 11:59:40;;;;;;;10.90;2.20;;;24.00;79.10;;;;;;5110340;28;20140;-61
2023/07/03 12:02:11;;;;;;;6.55;1.70;;;24.10;77.30;;;;;;5109710;28;20054;-62
2023/07/03 12:04:44;;;;;;;7.63;2.30;;;24.20;78.80;;;;;;5112629;28;20040;-61
2023/07/03 12:07:10;;;;;;;;;;;23.90;78.60;;;;;;5112163;28;20047;-62
2023/07/03 12:09:36;;;;;;;9.48;2.20;;;24.10;79.10;;;;;;5089896;28;20392;-64
2023/07/03 12:12:07;;;;;;;7.70;1.85;;;23.90;78.30;;;;;;5110475;28;20131;-60
2023/07/03 12:15:15;;;;;;;6.07;1.75;;;24.00;77.50;;;;;;5112611;28;20035;-60
2023/07/03 12:17:35;;;;;;;6.82;2.10;;;24.10;81.50;;;;;;5103868;28;20039;-61
2023/07/03 12:20:07;;;;;;;7.28;1.85;;;24.10;78.70;;;;;;5111316;28;20047;-61
2023/07/03 12:22:44;;;;;;;5.30;2.20;;;24.20;77.30;;;;;;5098171;28;20118;-61
2023/07/03 12:25:20;;;;;;;7.90;2.25;;;24.00;77.10;;;;;;5113354;28;20413;-61
2023/07/03 12:27:46;;;;;;;5.60;1.48;;;23.90;76.60;;;;;;5110296;28;20446;-62
2023/07/03 12:30:24;;;;;;;4.85;1.52;;;23.90;78.10;;;;;;5111795;28;20112;-61
2023/07/03 12:32:51;;;;;;;6.53;1.77;;;23.90;76.50;;;;;;5108491;28;20051;-63
2023/07/03 12:35:30;;;;;;;4.72;1.63;;;23.80;77.70;;;;;;5097576;28;20563;-61
2023/07/03 12:37:58;;;;;;;4.65;1.52;;;23.80;76.40;;;;;;5096283;28;20055;-62
2023/07/03 12:40:24;;;;;;;4.32;1.33;;;23.90;78.10;;;;;;5111997;28;20044;-61
2023/07/03 12:42:56;;;;;;;4.63;1.40;;;24.00;77.80;;;;;;5109753;28;20040;-61
2023/07/03 12:45:29;;;;;;;3.33;1.30;;;24.00;78.00;;;;;;5108787;28;20435;-64
2023/07/03 12:48:05;;;;;;;4.95;1.50;;;23.90;76.50;;;;;;5095717;28;20489;-62
2023/07/03 12:50:32;;;;;;;4.90;1.48;;;23.90;77.90;;;;;;5111405;28;20051;-66
2023/07/03 12:52:59;;;;;;;6.50;1.80;;;24.00;78.20;;;;;;5107183;28;20043;-61
2023/07/03 12:55:31;;;;;;;6.50;1.80;;;23.80;78.00;;;;;;5108421;28;20096;-62